createdAt,value
2022-11-15T00:02:08.796Z,11.50
2022-11-15T00:04:29.276Z,10.60
2022-11-15T00:06:50.079Z,10.87
2022-11-15T00:09:10.881Z,12.00
2022-11-15T00:11:32.036Z,12.13
2022-11-15T00:13:55.891Z,12.10
2022-11-15T00:16:16.788Z,12.20
2022-11-15T00:18:38.513Z,12.40
2022-11-15T00:21:06.122Z,12.00
2022-11-15T00:23:26.718Z,11.80
2022-11-15T00:26:00.465Z,12.17
2022-11-15T00:28:21.109Z,12.30
2022-11-15T00:30:44.097Z,13.00
2022-11-15T00:33:06.330Z,12.57
2022-11-15T00:35:28.352Z,13.57
2022-11-15T00:37:49.599Z,13.20
2022-11-15T00:40:11.133Z,13.20
2022-11-15T00:42:31.573Z,13.60
2022-11-15T00:44:52.296Z,14.57
2022-11-15T00:47:12.771Z,15.27
2022-11-15T00:49:34.092Z,15.10
2022-11-15T00:51:54.747Z,16.37
2022-11-15T00:54:15.506Z,15.10
2022-11-15T00:56:35.873Z,15.03
2022-11-15T00:58:56.119Z,13.93
2022-11-15T01:01:16.596Z,13.10
2022-11-15T01:03:39.007Z,12.60
2022-11-15T01:06:01.297Z,12.53
2022-11-15T01:08:21.908Z,12.97
2022-11-15T01:10:43.743Z,12.73
2022-11-15T01:13:04.370Z,13.40
2022-11-15T01:15:24.642Z,12.60
2022-11-15T01:17:45.178Z,11.87
2022-11-15T01:21:09.647Z,10.83
2022-11-15T01:23:30.358Z,10.53
2022-11-15T01:25:51.098Z,9.57
2022-11-15T01:28:12.016Z,9.50
2022-11-15T01:30:33.052Z,8.97
2022-11-15T01:32:53.254Z,9.47
2022-11-15T01:35:14.109Z,8.60
2022-11-15T01:37:34.738Z,8.27
2022-11-15T01:39:55.305Z,7.80
2022-11-15T01:42:16.126Z,8.20
2022-11-15T01:44:44.306Z,7.53
2022-11-15T01:47:10.237Z,7.97
2022-11-15T01:49:34.839Z,7.67
2022-11-15T01:51:56.246Z,8.57
2022-11-15T01:58:11.397Z,8.90
2022-11-15T02:00:33.044Z,9.83
2022-11-15T02:02:54.424Z,8.67
2022-11-15T02:05:15.058Z,9.17
2022-11-15T02:07:37.305Z,9.60
2022-11-15T02:10:03.947Z,10.00
2022-11-15T02:12:24.822Z,9.27
2022-11-15T02:14:49.451Z,10.03
2022-11-15T02:17:26.058Z,10.80
2022-11-15T02:19:52.445Z,11.03
2022-11-15T02:22:21.865Z,10.10
2022-11-15T02:25:02.628Z,10.43
2022-11-15T02:27:53.339Z,10.47
2022-11-15T02:30:27.342Z,10.77
2022-11-15T02:32:54.188Z,9.83
2022-11-15T02:35:53.305Z,10.00
2022-11-15T02:38:31.827Z,8.80
2022-11-15T02:41:03.556Z,9.60
2022-11-15T02:43:51.232Z,9.40
2022-11-15T02:46:59.599Z,8.47
2022-11-15T02:49:20.888Z,9.23
2022-11-15T02:51:42.973Z,9.50
2022-11-15T02:54:03.689Z,8.77
2022-11-15T02:56:26.765Z,8.30
2022-11-15T02:59:13.351Z,8.77
2022-11-15T03:01:57.183Z,8.00
2022-11-15T03:04:24.838Z,8.77
2022-11-15T03:06:55.061Z,7.90
2022-11-15T03:09:44.140Z,8.67
2022-11-15T03:12:12.996Z,7.90
2022-11-15T03:14:38.430Z,8.03
2022-11-15T03:17:04.852Z,7.43
2022-11-15T03:19:35.330Z,8.00
2022-11-15T03:21:59.175Z,7.40
2022-11-15T03:24:46.603Z,7.70
2022-11-15T03:27:11.267Z,8.23
2022-11-15T03:29:39.177Z,7.03
2022-11-15T03:32:06.373Z,7.57
2022-11-15T03:34:39.257Z,7.93
2022-11-15T03:37:00.317Z,8.10
2022-11-15T03:39:22.741Z,8.77
2022-11-15T03:41:52.518Z,8.80
2022-11-15T03:44:24.594Z,9.13
2022-11-15T03:46:55.976Z,11.50
2022-11-15T03:49:23.824Z,11.80
2022-11-15T03:51:45.021Z,10.77
2022-11-15T03:54:09.136Z,10.50
2022-11-15T03:56:29.845Z,10.83
2022-11-15T03:58:50.672Z,10.17
2022-11-15T04:01:10.840Z,11.37
2022-11-15T04:03:31.770Z,12.60
2022-11-15T04:05:52.567Z,13.47
2022-11-15T04:08:13.385Z,12.47
2022-11-15T04:10:33.921Z,14.00
2022-11-15T04:12:54.883Z,13.33
2022-11-15T04:15:18.823Z,12.13
2022-11-15T04:17:44.405Z,11.77
2022-11-15T04:20:25.441Z,11.27
2022-11-15T04:23:04.805Z,10.87
2022-11-15T04:25:31.079Z,10.40
2022-11-15T04:27:52.645Z,9.73
2022-11-15T04:30:13.286Z,10.30
2022-11-15T04:32:33.993Z,10.93
2022-11-15T04:34:54.096Z,12.10
2022-11-15T04:37:16.419Z,12.57
2022-11-15T04:39:37.201Z,12.03
2022-11-15T04:41:57.961Z,11.27
2022-11-15T04:44:18.702Z,10.90
2022-11-15T04:46:39.426Z,10.70
2022-11-15T04:49:00.109Z,10.73
2022-11-15T04:51:20.967Z,9.93
2022-11-15T04:54:07.771Z,9.67
2022-11-15T04:56:32.307Z,10.07
2022-11-15T04:58:54.160Z,9.67
2022-11-15T05:01:16.204Z,10.43
2022-11-15T05:03:55.306Z,11.43
2022-11-15T05:06:16.210Z,11.27
2022-11-15T05:08:39.733Z,13.03
2022-11-15T05:11:00.546Z,12.00
2022-11-15T05:13:21.409Z,10.73
2022-11-15T05:15:42.182Z,10.37
2022-11-15T05:18:04.461Z,12.23
2022-11-15T05:20:25.635Z,15.40
2022-11-15T05:22:46.254Z,16.90
2022-11-15T05:25:07.762Z,14.80
2022-11-15T05:27:28.236Z,14.43
2022-11-15T05:29:49.027Z,12.83
2022-11-15T05:32:11.463Z,11.63
2022-11-15T05:34:32.405Z,12.63
2022-11-15T05:36:53.090Z,11.70
2022-11-15T05:39:21.664Z,13.83
2022-11-15T05:41:56.915Z,23.07
2022-11-15T05:44:21.283Z,15.63
2022-11-15T05:46:43.328Z,16.43
2022-11-15T05:49:07.613Z,14.57
2022-11-15T05:51:30.368Z,13.13
2022-11-15T05:53:53.289Z,13.67
2022-11-15T05:56:14.169Z,13.90
2022-11-15T05:58:38.193Z,15.27
2022-11-15T06:00:59.092Z,15.13
2022-11-15T06:03:26.242Z,16.87
2022-11-15T06:05:46.912Z,20.00
2022-11-15T06:08:07.804Z,20.70
2022-11-15T06:10:28.421Z,21.67
2022-11-15T06:13:04.405Z,18.73
2022-11-15T06:15:24.869Z,18.50
2022-11-15T06:17:45.352Z,20.87
2022-11-15T06:20:06.285Z,23.43
2022-11-15T06:22:26.701Z,25.00
2022-11-15T06:24:47.870Z,24.30
2022-11-15T06:27:08.306Z,24.30
2022-11-15T06:29:29.105Z,20.57
2022-11-15T06:31:49.966Z,20.70
2022-11-15T06:34:10.660Z,18.07
2022-11-15T06:36:31.035Z,18.93
2022-11-15T06:38:54.157Z,18.17
2022-11-15T06:45:02.411Z,17.80
2022-11-15T06:47:23.065Z,18.23
2022-11-15T06:49:44.015Z,15.87
2022-11-15T06:52:04.915Z,17.67
2022-11-15T06:54:26.466Z,17.97
2022-11-15T06:56:47.116Z,15.37
2022-11-15T06:59:07.531Z,16.30
2022-11-15T07:01:28.081Z,16.97
2022-11-15T07:03:51.630Z,16.27
2022-11-15T07:06:12.344Z,15.07
2022-11-15T07:08:33.120Z,15.30
2022-11-15T07:10:54.054Z,15.43
2022-11-15T07:13:14.758Z,15.40
2022-11-15T07:15:35.177Z,16.10
2022-11-15T07:17:55.741Z,17.03
2022-11-15T07:20:19.927Z,17.67
2022-11-15T07:22:43.947Z,16.50
2022-11-15T07:25:04.955Z,16.60
2022-11-15T07:27:25.822Z,16.67
2022-11-15T07:29:46.616Z,14.87
2022-11-15T07:32:07.393Z,13.27
2022-11-15T07:34:27.758Z,11.77
2022-11-15T07:36:48.134Z,10.07
2022-11-15T07:39:09.379Z,10.30
2022-11-15T07:41:30.978Z,8.90
2022-11-15T07:43:54.397Z,9.53
2022-11-15T07:46:16.445Z,8.90
2022-11-15T07:48:44.086Z,9.47
2022-11-15T07:51:09.895Z,9.37
2022-11-15T07:53:34.252Z,10.67
2022-11-15T07:55:55.083Z,10.10
2022-11-15T07:58:16.098Z,10.60
2022-11-15T08:00:37.192Z,11.20
2022-11-15T08:03:24.221Z,9.95
2022-11-15T08:05:52.166Z,9.50
2022-11-15T08:08:13.061Z,10.70
2022-11-15T08:10:39.378Z,10.45
2022-11-15T08:13:04.056Z,9.70
2022-11-15T08:15:24.866Z,9.95
2022-11-15T08:17:45.431Z,10.27
2022-11-15T08:20:07.062Z,10.45
2022-11-15T08:22:27.675Z,12.25
2022-11-15T08:24:47.847Z,11.80
2022-11-15T08:27:16.163Z,11.48
2022-11-15T08:29:37.269Z,11.48
2022-11-15T08:31:58.282Z,11.32
2022-11-15T08:34:19.123Z,13.40
2022-11-15T08:36:46.005Z,13.70
2022-11-15T08:39:06.777Z,13.60
2022-11-15T08:41:36.985Z,12.75
2022-11-15T08:43:58.096Z,14.07
2022-11-15T08:46:19.483Z,16.48
2022-11-15T08:48:40.367Z,37.17
2022-11-15T08:51:01.047Z,25.15
2022-11-15T08:53:47.474Z,18.02
2022-11-15T08:56:10.239Z,19.13
2022-11-15T08:58:30.990Z,16.20
2022-11-15T09:00:51.882Z,12.63
2022-11-15T09:03:12.708Z,11.63
2022-11-15T09:05:36.659Z,11.20
2022-11-15T09:07:57.545Z,10.80
2022-11-15T09:10:18.076Z,9.45
2022-11-15T09:12:39.078Z,8.88
2022-11-15T09:14:59.889Z,8.00
2022-11-15T09:17:24.666Z,10.35
2022-11-15T09:20:10.380Z,17.38
2022-11-15T09:22:30.799Z,25.27
2022-11-15T09:24:51.477Z,22.48
2022-11-15T09:27:13.115Z,20.00
2022-11-15T09:29:33.665Z,16.30
2022-11-15T09:31:54.293Z,19.15
2022-11-15T09:34:14.938Z,16.73
2022-11-15T09:36:35.981Z,14.60
2022-11-15T09:38:59.227Z,11.75
2022-11-15T09:41:42.032Z,11.95
2022-11-15T09:44:44.962Z,22.30
2022-11-15T09:47:08.519Z,20.23
2022-11-15T09:49:31.054Z,15.63
2022-11-15T09:51:55.411Z,16.75
2022-11-15T09:54:51.741Z,16.45
2022-11-15T09:56:33.432Z,12.05
2022-11-15T09:59:03.971Z,13.13
2022-11-15T10:01:13.857Z,24.80
2022-11-15T10:03:43.081Z,20.92
2022-11-15T10:05:49.031Z,22.27
2022-11-15T10:08:08.054Z,23.73
2022-11-15T10:10:42.956Z,30.63
2022-11-15T10:12:49.266Z,34.58
2022-11-15T10:15:01.266Z,35.22
2022-11-15T10:17:40.639Z,36.67
2022-11-15T10:20:12.900Z,32.35
2022-11-15T10:22:20.726Z,24.02
2022-11-15T10:24:29.180Z,15.48
2022-11-15T10:26:31.363Z,23.23
2022-11-15T10:28:33.790Z,23.33
2022-11-15T10:30:42.486Z,19.63
2022-11-15T10:32:46.284Z,16.70
2022-11-15T10:34:50.192Z,16.45
2022-11-15T10:37:00.086Z,14.30
2022-11-15T10:39:02.141Z,12.82
2022-11-15T10:41:12.229Z,21.15
2022-11-15T10:43:16.206Z,27.10
2022-11-15T10:45:28.485Z,23.75
2022-11-15T10:47:39.009Z,24.95
2022-11-15T10:49:56.171Z,31.90
2022-11-15T10:52:16.183Z,34.65
2022-11-15T10:54:27.190Z,29.17
2022-11-15T10:56:29.627Z,25.83
2022-11-15T10:58:41.371Z,23.90
2022-11-15T11:00:43.820Z,36.78
2022-11-15T11:03:08.466Z,41.15
2022-11-15T11:05:42.151Z,44.50
2022-11-15T11:11:09.355Z,19.95
2022-11-15T11:13:30.168Z,17.33
2022-11-15T11:15:32.443Z,12.63
2022-11-15T11:17:46.379Z,11.13
2022-11-15T11:20:01.161Z,11.68
2022-11-15T11:22:42.960Z,11.82
2022-11-15T11:25:05.073Z,11.50
2022-11-15T11:27:34.207Z,11.95
2022-11-15T11:30:03.274Z,12.07
2022-11-15T11:32:38.848Z,11.95
2022-11-15T11:35:42.985Z,10.45
2022-11-15T11:37:52.546Z,9.27
2022-11-15T11:40:17.535Z,8.88
2022-11-15T11:43:02.685Z,8.85
2022-11-15T11:45:47.320Z,8.55
2022-11-15T11:48:09.145Z,9.10
2022-11-15T11:50:24.442Z,9.05
2022-11-15T11:52:28.538Z,8.70
2022-11-15T11:54:51.956Z,9.63
2022-11-15T11:56:55.534Z,9.25
2022-11-15T11:59:07.841Z,9.57
2022-11-15T12:01:21.807Z,9.27
2022-11-15T12:03:36.092Z,19.13
2022-11-15T12:05:56.657Z,26.25
2022-11-15T12:08:11.148Z,26.75
2022-11-15T12:10:23.648Z,29.13
2022-11-15T12:12:48.695Z,29.02
2022-11-15T12:14:57.581Z,20.08
2022-11-15T12:17:00.635Z,15.15
2022-11-15T12:19:06.289Z,12.45
2022-11-15T12:21:36.371Z,9.85
2022-11-15T12:23:53.030Z,8.15
2022-11-15T12:26:03.352Z,8.60
2022-11-15T12:28:36.457Z,9.52
2022-11-15T12:30:53.585Z,10.75
2022-11-15T12:33:02.959Z,10.07
2022-11-15T12:35:21.265Z,10.93
2022-11-15T12:37:45.130Z,11.68
2022-11-15T12:40:25.782Z,11.48
2022-11-15T12:43:08.211Z,12.38
2022-11-15T12:45:36.491Z,15.63
2022-11-15T12:47:38.626Z,17.15
2022-11-15T12:49:40.623Z,17.42
2022-11-15T12:51:53.094Z,17.88
2022-11-15T12:53:55.071Z,16.17
2022-11-15T12:56:16.236Z,17.90
2022-11-15T12:58:29.833Z,15.80
2022-11-15T13:00:34.966Z,14.07
2022-11-15T13:02:47.671Z,13.43
2022-11-15T13:04:51.538Z,13.45
2022-11-15T13:06:56.937Z,14.15
2022-11-15T13:08:59.382Z,12.93
2022-11-15T13:11:39.934Z,13.25
2022-11-15T13:13:46.396Z,13.00
2022-11-15T13:16:19.457Z,12.10
2022-11-15T13:18:37.339Z,12.00
2022-11-15T13:28:42.589Z,12.13
2022-11-15T13:30:47.584Z,12.40
2022-11-15T13:32:51.559Z,14.30
2022-11-15T13:34:53.971Z,13.90
2022-11-15T13:36:56.990Z,13.90
2022-11-15T13:39:26.218Z,14.82
2022-11-15T13:41:37.038Z,14.90
2022-11-15T13:43:39.248Z,14.05
2022-11-15T13:45:41.269Z,15.70
2022-11-15T13:47:44.724Z,16.90
2022-11-15T13:49:47.010Z,17.45
2022-11-15T13:51:52.450Z,18.65
2022-11-15T13:54:30.136Z,18.60
2022-11-15T13:56:35.223Z,19.23
2022-11-15T13:58:40.762Z,21.33
2022-11-15T14:00:46.230Z,25.15
2022-11-15T14:02:48.381Z,24.65
2022-11-15T14:05:00.705Z,25.23
2022-11-15T14:07:03.984Z,23.75
2022-11-15T14:09:12.207Z,22.75
2022-11-15T14:11:18.642Z,24.65
2022-11-15T14:13:34.851Z,24.40
2022-11-15T14:15:39.515Z,23.50
2022-11-15T14:17:49.735Z,21.33
2022-11-15T14:19:53.705Z,20.83
2022-11-15T14:22:26.791Z,19.98
2022-11-15T14:24:32.701Z,20.00
2022-11-15T14:26:35.969Z,20.73
2022-11-15T14:28:40.333Z,22.75
2022-11-15T14:30:43.846Z,24.58
2022-11-15T14:32:50.669Z,28.25
2022-11-15T14:35:01.293Z,28.98
2022-11-15T14:37:03.318Z,29.80
2022-11-15T14:39:06.424Z,36.80
2022-11-15T14:41:20.239Z,33.35
2022-11-15T14:43:22.438Z,36.30
2022-11-15T14:45:24.545Z,36.17
2022-11-15T14:47:26.641Z,34.00
2022-11-15T14:49:28.688Z,31.25
2022-11-15T14:51:31.217Z,27.25
2022-11-15T14:53:33.472Z,23.70
2022-11-15T14:55:37.352Z,21.73
2022-11-15T14:57:39.650Z,20.92
2022-11-15T14:59:41.806Z,19.45
2022-11-15T15:01:46.263Z,17.20
2022-11-15T15:03:48.429Z,17.33
2022-11-15T15:05:50.928Z,17.55
2022-11-15T15:07:54.317Z,16.40
2022-11-15T15:10:06.744Z,17.38
2022-11-15T15:12:20.889Z,15.75
2022-11-15T15:14:23.222Z,15.85
2022-11-15T15:16:25.945Z,20.35
2022-11-15T15:18:28.200Z,25.48
2022-11-15T15:20:31.193Z,26.77
2022-11-15T15:22:34.155Z,27.52
2022-11-15T15:24:36.072Z,29.73
2022-11-15T15:26:40.288Z,28.52
2022-11-15T15:28:42.573Z,29.70
2022-11-15T15:30:44.916Z,30.23
2022-11-15T15:32:47.064Z,31.17
2022-11-15T15:34:49.397Z,31.88
2022-11-15T15:37:50.971Z,30.17
2022-11-15T15:39:57.329Z,27.05
2022-11-15T15:41:59.567Z,25.38
2022-11-15T15:44:02.126Z,26.88
2022-11-15T15:46:04.613Z,28.60
2022-11-15T15:48:07.055Z,29.73
2022-11-15T15:50:21.183Z,30.05
2022-11-15T15:52:23.342Z,30.30
2022-11-15T15:54:25.364Z,28.98
2022-11-15T15:56:29.305Z,29.42
2022-11-15T15:58:35.657Z,28.90
2022-11-15T16:00:38.628Z,26.58
2022-11-15T16:02:41.262Z,25.15
2022-11-15T16:04:43.752Z,24.90
2022-11-15T16:06:46.037Z,23.08
2022-11-15T16:09:13.666Z,22.25
2022-11-15T16:11:11.367Z,24.10
2022-11-15T16:13:13.559Z,23.20
2022-11-15T16:15:16.211Z,22.92
2022-11-15T16:17:21.517Z,23.70
2022-11-15T16:19:23.785Z,56.28
2022-11-15T16:21:26.035Z,62.20
2022-11-15T16:23:27.923Z,71.40
2022-11-15T16:25:31.609Z,72.00
2022-11-15T16:27:33.804Z,72.82
2022-11-15T16:29:36.093Z,69.32
2022-11-15T16:31:38.659Z,66.00
2022-11-15T16:33:41.675Z,61.70
2022-11-15T16:35:43.801Z,55.00
2022-11-15T16:37:47.370Z,49.45
2022-11-15T16:39:50.737Z,47.67
2022-11-15T16:41:52.889Z,48.10
2022-11-15T16:43:54.881Z,43.85
2022-11-15T16:45:57.048Z,70.75
2022-11-15T16:51:23.951Z,70.45
2022-11-15T16:53:27.962Z,85.10
2022-11-15T16:55:30.684Z,85.35
2022-11-15T16:58:02.015Z,84.78
2022-11-15T17:00:04.775Z,87.22
2022-11-15T17:02:12.714Z,84.07
2022-11-15T17:04:16.491Z,83.72
2022-11-15T17:06:19.151Z,78.63
2022-11-15T17:08:22.641Z,80.22
2022-11-15T17:10:26.521Z,72.60
2022-11-15T17:12:28.935Z,76.40
2022-11-15T17:14:31.436Z,68.57
2022-11-15T17:16:38.369Z,71.57
2022-11-15T17:18:41.776Z,70.88
2022-11-15T17:20:44.661Z,71.60
2022-11-15T17:22:47.596Z,70.13
2022-11-15T17:24:49.975Z,74.20
2022-11-15T17:26:52.215Z,86.97
2022-11-15T17:28:57.841Z,96.97
2022-11-15T17:31:00.289Z,97.63
2022-11-15T17:33:02.215Z,88.70
2022-11-15T17:35:12.171Z,83.85
2022-11-15T17:37:17.459Z,83.30
2022-11-15T17:39:21.008Z,83.35
2022-11-15T17:41:23.427Z,77.15
2022-11-15T17:43:25.611Z,70.25
2022-11-15T17:45:27.751Z,71.57
2022-11-15T17:47:29.724Z,65.90
2022-11-15T17:49:31.920Z,54.40
2022-11-15T17:51:34.046Z,49.63
2022-11-15T17:53:38.685Z,45.03
2022-11-15T17:55:43.026Z,44.88
2022-11-15T17:57:45.125Z,39.53
2022-11-15T17:59:48.800Z,37.75
2022-11-15T18:01:50.919Z,34.78
2022-11-15T18:03:53.889Z,35.13
2022-11-15T18:05:56.046Z,58.72
2022-11-15T18:07:58.268Z,61.20
2022-11-15T18:10:00.492Z,61.15
2022-11-15T18:12:02.578Z,53.70
2022-11-15T18:14:06.690Z,49.38
2022-11-15T18:16:15.696Z,46.17
2022-11-15T18:18:20.298Z,56.03
2022-11-15T18:20:26.551Z,60.67
2022-11-15T18:22:30.840Z,58.83
2022-11-15T18:24:41.637Z,59.05
2022-11-15T18:26:43.809Z,51.13
2022-11-15T18:28:49.006Z,46.00
2022-11-15T18:30:52.758Z,53.22
2022-11-15T18:32:55.520Z,63.63
2022-11-15T18:34:57.625Z,64.10
2022-11-15T18:37:01.650Z,57.30
2022-11-15T18:39:05.044Z,54.97
2022-11-15T18:41:09.776Z,48.38
2022-11-15T18:43:36.978Z,46.28
2022-11-15T18:45:39.090Z,44.10
2022-11-15T18:47:44.201Z,41.58
2022-11-15T18:49:48.531Z,42.15
2022-11-15T18:51:50.873Z,43.28
2022-11-15T18:53:54.801Z,41.45
2022-11-15T18:56:05.178Z,41.47
2022-11-15T18:58:07.097Z,41.40
2022-11-15T19:00:09.917Z,40.35
2022-11-15T19:02:13.110Z,40.40
2022-11-15T19:04:19.089Z,39.47
2022-11-15T19:06:23.933Z,39.67
2022-11-15T19:08:26.301Z,39.08
2022-11-15T19:10:28.297Z,38.03
2022-11-15T19:12:30.276Z,39.55
2022-11-15T19:14:32.915Z,41.88
2022-11-15T19:16:38.094Z,52.60
2022-11-15T19:18:40.220Z,50.42
2022-11-15T19:20:42.596Z,50.70
2022-11-15T19:22:44.671Z,48.88
2022-11-15T19:24:46.655Z,44.90
2022-11-15T19:26:48.987Z,42.92
2022-11-15T19:28:58.404Z,45.70
2022-11-15T19:31:11.521Z,46.90
2022-11-15T19:33:13.709Z,47.33
2022-11-15T19:35:15.931Z,46.45
2022-11-15T19:37:17.879Z,47.83
2022-11-15T19:39:20.054Z,52.42
2022-11-15T19:41:24.150Z,53.65
2022-11-15T19:43:26.703Z,54.88
2022-11-15T19:45:28.551Z,55.85
2022-11-15T19:47:33.621Z,52.28
2022-11-15T19:49:38.418Z,51.00
2022-11-15T19:51:42.653Z,47.45
2022-11-15T19:53:45.446Z,48.15
2022-11-15T19:56:00.307Z,43.53
2022-11-15T19:58:02.762Z,40.05
2022-11-15T20:00:07.600Z,38.40
2022-11-15T20:02:12.518Z,39.70
2022-11-15T20:04:14.662Z,41.00
2022-11-15T20:06:22.005Z,40.58
2022-11-15T20:08:24.225Z,41.58
2022-11-15T20:10:26.228Z,42.80
2022-11-15T20:12:28.190Z,53.25
2022-11-15T20:14:30.522Z,61.72
2022-11-15T20:16:33.719Z,63.47
2022-11-15T20:18:36.118Z,57.42
2022-11-15T20:20:38.698Z,52.28
2022-11-15T20:22:40.904Z,52.42
2022-11-15T20:24:42.987Z,53.75
2022-11-15T20:26:45.194Z,53.70
2022-11-15T20:28:48.241Z,60.63
2022-11-15T20:30:53.709Z,57.40
2022-11-15T20:32:55.722Z,86.47
2022-11-15T20:34:57.599Z,89.22
2022-11-15T20:36:59.798Z,84.25
2022-11-15T20:39:01.920Z,93.78
2022-11-15T20:41:04.101Z,90.88
2022-11-15T20:43:07.236Z,75.75
2022-11-15T20:45:09.519Z,78.05
2022-11-15T20:47:11.639Z,77.85
2022-11-15T20:49:13.407Z,71.90
2022-11-15T20:51:17.112Z,82.93
2022-11-15T20:53:20.464Z,96.00
2022-11-15T20:55:22.896Z,107.28
2022-11-15T20:57:25.018Z,103.43
2022-11-15T20:59:27.296Z,99.38
2022-11-15T21:01:29.711Z,91.40
2022-11-15T21:03:33.290Z,91.47
2022-11-15T21:05:38.958Z,81.20
2022-11-15T21:07:46.611Z,77.45
2022-11-15T21:10:07.601Z,67.05
2022-11-15T21:12:14.064Z,67.32
2022-11-15T21:14:16.157Z,66.65
2022-11-15T21:16:18.031Z,64.93
2022-11-15T21:18:19.958Z,60.30
2022-11-15T21:20:21.817Z,56.45
2022-11-15T21:22:24.056Z,56.58
2022-11-15T21:24:26.336Z,59.33
2022-11-15T21:26:28.754Z,65.32
2022-11-15T21:28:31.305Z,72.47
2022-11-15T21:30:33.976Z,79.70
2022-11-15T21:32:39.345Z,74.35
2022-11-15T21:34:41.735Z,68.78
2022-11-15T21:36:46.110Z,65.95
2022-11-15T21:38:50.480Z,60.50
2022-11-15T21:40:53.633Z,63.05
2022-11-15T21:42:55.636Z,58.53
2022-11-15T21:44:57.766Z,59.03
2022-11-15T21:47:00.502Z,56.92
2022-11-15T21:49:02.877Z,53.05
2022-11-15T21:51:07.510Z,50.67
2022-11-15T21:53:09.533Z,51.13
2022-11-15T21:55:11.656Z,49.15
2022-11-15T21:57:13.783Z,50.70
2022-11-15T21:59:15.633Z,53.40
2022-11-15T22:01:36.155Z,62.40
2022-11-15T22:03:38.127Z,64.13
2022-11-15T22:05:43.995Z,61.20
2022-11-15T22:07:45.971Z,64.80
2022-11-15T22:09:48.022Z,57.50
2022-11-15T22:11:50.146Z,58.15
2022-11-15T22:13:52.204Z,55.83
2022-11-15T22:15:55.144Z,59.55
2022-11-15T22:18:00.121Z,71.22
2022-11-15T22:20:16.886Z,57.97
2022-11-15T22:22:24.717Z,49.63
2022-11-15T22:24:27.514Z,51.60
2022-11-15T22:26:29.620Z,49.25
2022-11-15T22:28:32.541Z,56.08
2022-11-15T22:30:39.592Z,58.15
2022-11-15T22:36:08.027Z,48.20
2022-11-15T22:38:11.191Z,57.55
2022-11-15T22:40:13.586Z,61.65
2022-11-15T22:42:20.721Z,55.17
2022-11-15T22:44:25.428Z,50.78
2022-11-15T22:46:27.971Z,46.85
2022-11-15T22:48:36.442Z,46.33
2022-11-15T22:50:39.225Z,45.45
2022-11-15T22:52:41.490Z,42.90
2022-11-15T22:54:46.586Z,46.70
2022-11-15T22:56:51.053Z,47.50
2022-11-15T22:58:53.152Z,49.22
2022-11-15T23:00:58.297Z,46.63
2022-11-15T23:03:00.957Z,42.53
2022-11-15T23:05:03.580Z,40.53
2022-11-15T23:07:05.824Z,41.90
2022-11-15T23:09:08.385Z,47.92
2022-11-15T23:11:30.272Z,46.55
2022-11-15T23:13:33.570Z,46.03
2022-11-15T23:15:54.441Z,43.20
2022-11-15T23:17:56.789Z,42.42
2022-11-15T23:20:11.157Z,50.55
2022-11-15T23:22:39.725Z,56.63
2022-11-15T23:24:41.913Z,58.80
2022-11-15T23:26:46.073Z,63.75
2022-11-15T23:28:48.264Z,48.92
2022-11-15T23:31:09.122Z,47.47
2022-11-15T23:34:01.982Z,53.03
2022-11-15T23:36:05.402Z,61.42
2022-11-15T23:38:07.921Z,69.97
2022-11-15T23:40:10.911Z,60.92
2022-11-15T23:42:20.278Z,53.88
2022-11-15T23:44:23.193Z,54.65
2022-11-15T23:46:25.212Z,53.25
2022-11-15T23:48:28.089Z,52.10
2022-11-15T23:50:32.926Z,43.60
2022-11-15T23:52:35.216Z,42.63
2022-11-15T23:54:38.406Z,43.10
2022-11-15T23:56:40.685Z,41.42
2022-11-15T23:58:44.400Z,40.75
